SIL weather

San Isidro Labrador Airport
Cajeme, Sonora, Mexico

Public forecast

Using degrees Celsius for public forecast. Weather courtesy of forecast.io.

METAR (pilot weather report)

Closest report is Ciudad Obregón International Airport, 4.2 nm (7.8 km) ENE. Retrieved 2019/06/19 22:40 UTC (0 seconds ago):

MMCN 192240Z 20008KT 10SM FEW200 36/11 A2981 RMK 8/008 HZY

TAF (pilot weather forecast)

Closest forecast is Ciudad Obregón International Airport, 4.2 nm (7.8 km) ENE. Retrieved 2019/06/19 18:46 UTC (4 hours ago):

TAF MMCN 191640Z 1918/2018 13005KT P6SM BKN200 FM192100 24012KT P6SM BKN250 FM200300 00000KT P6SM BKN200